Time;durP1;ratioP1;P1;durP2;ratioP2;P2;SDS_P1;SDS_P2;PMS_P1;PMS_P2;Temp;Humidity;BMP_temperature;BMP_pressure;BME280_temperature;BME280_humidity;BME280_pressure;Samples;Min_cycle;Max_cycle;Signal;HPM_P1;HPM_P2
2023/01/04 00:00:01;;;;;;;82.15;32.00;;;;;;;0.87;100.00;101930.52;5099397;55;1141041;-72
2023/01/04 00:05:09;;;;;;;87.55;36.65;;;;;;;0.85;100.00;101916.22;5106678;55;1140863;-71
2023/01/04 00:10:15;;;;;;;62.23;26.00;;;;;;;0.79;100.00;101918.03;5142362;55;1140841;-73
2023/01/04 00:15:21;;;;;;;40.93;16.87;;;;;;;0.76;100.00;101922.88;5122585;55;1140906;-74
2023/01/04 00:20:27;;;;;;;38.17;18.43;;;;;;;0.77;100.00;101917.20;5150840;55;1140824;-69
2023/01/04 00:25:32;;;;;;;40.50;20.17;;;;;;;0.79;100.00;101910.22;5177358;55;1140909;-70
2023/01/04 00:30:38;;;;;;;63.30;30.00;;;;;;;0.78;100.00;101912.41;5156940;55;1140870;-72
2023/01/04 00:35:44;;;;;;;63.07;25.67;;;;;;;0.84;100.00;101898.87;5100186;55;1141120;-67
2023/01/04 00:40:50;;;;;;;62.23;29.40;;;;;;;0.85;100.00;101886.70;5156868;55;1141087;-71
2023/01/04 00:45:57;;;;;;;75.63;33.20;;;;;;;0.81;100.00;101890.23;5177233;55;1140680;-70
2023/01/04 00:51:02;;;;;;;52.53;22.40;;;;;;;0.77;100.00;101893.76;5156835;55;1140810;-74
2023/01/04 00:56:08;;;;;;;42.23;16.20;;;;;;;0.78;100.00;101898.95;5157207;55;1140798;-69
2023/01/04 01:01:14;;;;;;;126.57;47.10;;;;;;;0.66;100.00;101890.89;5177890;55;1140938;-69
2023/01/04 01:06:21;;;;;;;79.60;30.27;;;;;;;0.60;100.00;101879.72;5157225;55;1143049;-72
2023/01/04 01:11:27;;;;;;;41.27;18.10;;;;;;;0.58;100.00;101880.18;5157397;56;1140928;-73
2023/01/04 01:16:33;;;;;;;37.28;17.15;;;;;;;0.53;100.00;101881.54;5178175;55;1140761;-73
2023/01/04 01:21:39;;;;;;;39.10;15.77;;;;;;;0.58;100.00;101897.10;5157505;55;1141057;-75
2023/01/04 01:26:46;;;;;;;48.60;17.80;;;;;;;0.60;100.00;101893.60;5157475;55;1140923;-69
2023/01/04 01:31:53;;;;;;;51.67;20.03;;;;;;;0.60;100.00;101901.85;5144220;55;1140961;-72
2023/01/04 01:36:59;;;;;;;34.13;15.90;;;;;;;0.61;100.00;101907.01;5055228;56;1140853;-69
2023/01/04 01:42:05;;;;;;;42.70;16.03;;;;;;;0.60;100.00;101896.20;5018253;56;1140992;-69
2023/01/04 01:47:16;;;;;;;60.07;20.10;;;;;;;0.53;100.00;101881.54;5018202;56;1141011;-66
2023/01/04 01:52:31;;;;;;;67.57;23.63;;;;;;;0.46;100.00;101868.18;5037965;56;1140757;-71
2023/01/04 01:57:39;;;;;;;65.67;24.07;;;;;;;0.39;100.00;101848.34;5015591;56;1141064;-72
2023/01/04 02:03:16;;;;;;;51.92;22.27;;;;;;;0.36;100.00;101849.69;5049518;56;1140989;-72
2023/01/04 02:08:24;;;;;;;47.60;20.43;;;;;;;0.35;100.00;101838.42;5072865;56;1140786;-75
2023/01/04 02:19:04;;;;;;;33.77;13.93;;;;;;;0.27;100.00;101797.35;5072217;56;1140919;-70
2023/01/04 02:24:15;;;;;;;28.43;12.43;;;;;;;0.22;100.00;101796.55;5109758;56;1140828;-68
2023/01/04 02:30:04;;;;;;;44.27;17.27;;;;;;;0.16;100.00;101802.27;5110355;55;1140705;-72
2023/01/04 02:35:25;;;;;;;36.50;15.40;;;;;;;0.18;100.00;101783.16;5042767;56;1140785;-70
2023/01/04 02:40:42;;;;;;;35.00;14.45;;;;;;;0.21;100.00;101763.61;5046062;56;1140931;-66
2023/01/04 02:46:08;;;;;;;30.93;14.00;;;;;;;0.25;100.00;101757.92;5006623;56;1140959;-72
2023/01/04 02:51:33;;;;;;;28.53;12.93;;;;;;;0.23;100.00;101765.75;4965315;57;1140848;-66
2023/01/04 02:57:13;;;;;;;25.57;13.00;;;;;;;0.27;100.00;101757.47;4964362;57;1140849;-67
2023/01/04 03:08:29;;;;;;;27.27;14.00;;;;;;;0.35;100.00;101741.28;5026959;56;1140867;-73
2023/01/04 03:13:44;;;;;;;41.80;17.77;;;;;;;0.34;100.00;101724.80;5120068;56;1140936;-72
2023/01/04 03:18:54;;;;;;;32.93;15.67;;;;;;;0.28;100.00;101721.02;5045720;55;1140953;-71
2023/01/04 03:35:26;;;;;;;35.80;15.00;;;;;;;0.43;100.00;101683.92;4916300;57;1140938;-71
2023/01/04 03:51:34;;;;;;;42.70;23.20;;;;;;;0.63;100.00;101663.13;4978521;57;1140947;-71
2023/01/04 03:56:42;;;;;;;42.93;20.05;;;;;;;0.65;100.00;101666.57;4963481;57;1141061;-72
2023/01/04 04:01:48;;;;;;;39.93;18.57;;;;;;;0.81;100.00;101671.49;5024243;56;1140782;-67
2023/01/04 04:12:18;;;;;;;34.03;16.32;;;;;;;0.85;100.00;101661.44;5060112;57;1140982;-68
2023/01/04 04:17:23;;;;;;;40.33;16.10;;;;;;;0.96;100.00;101651.66;4974912;57;1141039;-70
2023/01/04 04:22:29;;;;;;;34.83;17.97;;;;;;;1.07;100.00;101644.48;4960666;57;1140931;-72
2023/01/04 04:27:36;;;;;;;29.98;16.20;;;;;;;1.17;100.00;101623.88;5019904;57;1141138;-71
2023/01/04 04:32:42;;;;;;;26.90;12.63;;;;;;;1.29;100.00;101589.73;4920926;56;1140982;-68
2023/01/04 04:37:48;;;;;;;30.40;14.90;;;;;;;1.36;100.00;101578.73;4945084;57;1141034;-72
2023/01/04 04:42:54;;;;;;;36.70;16.30;;;;;;;1.43;100.00;101572.92;4944757;57;1140923;-68
2023/01/04 04:48:00;;;;;;;33.10;16.80;;;;;;;1.46;100.00;101552.86;4952761;56;1140867;-72
2023/01/04 04:53:06;;;;;;;29.03;15.33;;;;;;;1.56;100.00;101532.63;4984152;57;1140822;-69
2023/01/04 04:58:11;;;;;;;37.87;16.37;;;;;;;1.64;100.00;101532.02;4989761;56;1140747;-73
2023/01/04 05:03:18;;;;;;;32.57;17.67;;;;;;;1.68;100.00;101525.36;5012384;56;1140841;-73
2023/01/04 05:08:24;;;;;;;25.70;15.20;;;;;;;1.70;100.00;101528.80;5012329;55;1140933;-69
2023/01/04 05:13:30;;;;;;;31.82;15.80;;;;;;;1.75;100.00;101531.30;5004454;56;1141004;-69
2023/01/04 05:18:36;;;;;;;26.30;14.93;;;;;;;1.78;100.00;101531.67;4989611;56;1140903;-70
2023/01/04 05:23:42;;;;;;;30.77;16.40;;;;;;;1.80;100.00;101520.31;4967955;57;1140884;-68
2023/01/04 05:28:48;;;;;;;34.67;16.63;;;;;;;1.79;100.00;101508.16;4952241;57;1140757;-71
2023/01/04 05:33:54;;;;;;;31.15;13.53;;;;;;;1.80;100.00;101500.75;4974148;56;1141074;-69
2023/01/04 05:39:00;;;;;;;28.07;12.77;;;;;;;1.81;100.00;101492.03;5015213;56;1141025;-70
2023/01/04 05:44:07;;;;;;;28.47;16.80;;;;;;;1.80;100.00;101472.51;5045939;56;1141096;-69
2023/01/04 05:49:12;;;;;;;41.00;20.10;;;;;;;1.79;100.00;101470.80;5038470;56;1141081;-71
2023/01/04 05:54:18;;;;;;;29.17;15.70;;;;;;;1.83;100.00;101462.00;5065874;56;1140816;-66
2023/01/04 05:59:24;;;;;;;31.00;16.07;;;;;;;1.88;100.00;101460.10;5045944;56;1141001;-67
2023/01/04 06:04:30;;;;;;;30.40;15.47;;;;;;;1.91;100.00;101458.28;5054106;56;1153024;-70
2023/01/04 06:09:37;;;;;;;25.80;14.80;;;;;;;1.91;100.00;101447.84;5051610;56;1140879;-74
2023/01/04 06:14:42;;;;;;;45.55;21.80;;;;;;;1.91;100.00;101449.14;5042950;56;1140820;-75
2023/01/04 06:19:48;;;;;;;30.80;15.45;;;;;;;1.89;100.00;101420.08;5038862;56;1140926;-71
2023/01/04 06:24:54;;;;;;;26.73;13.17;;;;;;;1.89;100.00;101405.73;5046031;56;1140960;-72
2023/01/04 06:30:00;;;;;;;27.90;13.43;;;;;;;1.92;100.00;101396.53;5083171;55;1141009;-71
2023/01/04 06:35:06;;;;;;;22.23;11.47;;;;;;;1.92;100.00;101397.83;5098388;55;1140922;-67
2023/01/04 06:40:12;;;;;;;29.27;13.40;;;;;;;1.93;100.00;101377.38;5143409;55;1140802;-73
2023/01/04 06:45:18;;;;;;;23.73;11.03;;;;;;;1.96;100.00;101377.30;5127244;55;1141062;-72
2023/01/04 06:50:24;;;;;;;20.93;11.87;;;;;;;1.98;100.00;101371.14;5093046;55;1141039;-72
2023/01/04 06:55:30;;;;;;;19.53;10.20;;;;;;;2.02;100.00;101348.40;5042496;55;1140969;-69
2023/01/04 07:00:36;;;;;;;22.22;13.45;;;;;;;2.07;100.00;101355.20;5097104;56;1141043;-72
2023/01/04 07:05:43;;;;;;;29.33;14.53;;;;;;;2.07;100.00;101346.52;5114031;55;1140740;-69
2023/01/04 07:10:48;;;;;;;23.47;10.95;;;;;;;2.11;100.00;101348.16;5134550;55;1140931;-67
2023/01/04 07:15:54;;;;;;;25.50;14.25;;;;;;;2.13;100.00;101345.05;5123288;55;1140929;-67
2023/01/04 07:21:00;;;;;;;28.17;14.57;;;;;;;2.10;100.00;101338.16;5143763;55;1140879;-72
2023/01/04 07:26:07;;;;;;;28.03;12.30;;;;;;;2.10;100.00;101329.03;5121598;55;1140855;-69
2023/01/04 07:31:12;;;;;;;22.77;11.70;;;;;;;2.13;100.00;101315.04;5107520;55;1141134;-72
2023/01/04 07:36:18;;;;;;;24.57;12.60;;;;;;;2.15;100.00;101284.95;5146197;55;1141033;-70
2023/01/04 07:41:24;;;;;;;27.57;13.03;;;;;;;2.19;100.00;101275.69;5114420;55;1140947;-70
2023/01/04 07:46:29;;;;;;;23.57;11.87;;;;;;;2.25;100.00;101276.82;5126315;55;1140914;-72
2023/01/04 07:51:35;;;;;;;23.03;12.47;;;;;;;2.36;100.00;101279.08;5134585;55;1141029;-73
2023/01/04 07:56:41;;;;;;;20.82;11.05;;;;;;;2.44;100.00;101271.39;5091682;55;1140910;-71
2023/01/04 08:01:49;;;;;;;22.67;9.10;;;;;;;2.53;100.00;101262.44;5132328;55;1140989;-71
2023/01/04 08:06:55;;;;;;;20.62;10.50;;;;;;;2.69;100.00;101248.42;5111789;55;1138824;-69
2023/01/04 08:12:01;;;;;;;23.07;11.70;;;;;;;2.75;100.00;101239.91;5110188;55;1140846;-73
2023/01/04 08:17:07;;;;;;;21.53;10.13;;;;;;;2.87;100.00;101220.83;5129296;55;1140947;-75
2023/01/04 08:22:14;;;;;;;26.48;11.33;;;;;;;2.90;100.00;101193.30;5133456;55;1140857;-71
2023/01/04 08:27:20;;;;;;;21.27;10.10;;;;;;;2.95;100.00;101181.75;5140722;55;1141045;-68
2023/01/04 08:32:26;;;;;;;18.80;10.40;;;;;;;2.98;100.00;101171.20;5044609;56;1141181;-71
2023/01/04 08:37:34;;;;;;;21.50;10.03;;;;;;;2.99;100.00;101151.16;5120722;55;1140981;-68
2023/01/04 08:42:40;;;;;;;16.07;9.15;;;;;;;3.01;100.00;101139.73;5172949;55;1140752;-65
2023/01/04 08:47:46;;;;;;;15.70;8.43;;;;;;;3.02;100.00;101126.22;5135852;55;1138678;-66
2023/01/04 08:52:52;;;;;;;20.50;11.60;;;;;;;3.07;100.00;101122.52;5129972;55;1138731;-70
2023/01/04 08:58:00;;;;;;;20.80;10.38;;;;;;;3.12;100.00;101113.20;5046696;56;1140809;-73
2023/01/04 09:03:06;;;;;;;20.88;10.35;;;;;;;3.16;100.00;101107.81;5162605;55;1140935;-68
2023/01/04 09:08:12;;;;;;;17.07;9.17;;;;;;;3.20;100.00;101099.41;5117077;55;1140848;-69
2023/01/04 09:13:18;;;;;;;23.13;10.43;;;;;;;3.27;100.00;101089.09;5111342;55;1138859;-69
2023/01/04 09:18:24;;;;;;;24.12;9.68;;;;;;;3.31;100.00;101066.31;5139601;55;1140969;-68
2023/01/04 09:23:30;;;;;;;19.90;9.60;;;;;;;3.35;100.00;101055.69;5103595;55;1138897;-66
2023/01/04 09:28:36;;;;;;;14.23;7.53;;;;;;;3.41;100.00;101044.97;5119873;55;1138908;-68
2023/01/04 09:33:44;;;;;;;18.48;8.05;;;;;;;3.47;100.00;101031.66;5147372;55;1139105;-71
2023/01/04 09:38:56;;;;;;;16.17;8.27;;;;;;;3.54;100.00;101020.48;5160184;55;1138782;-69
2023/01/04 09:44:08;;;;;;;16.65;7.78;;;;;;;3.63;100.00;100991.81;5161138;55;1138829;-69
2023/01/04 09:49:43;;;;;;;17.57;8.93;;;;;;;3.71;100.00;100988.41;5164909;55;1138674;-69
2023/01/04 09:54:59;;;;;;;14.40;6.93;;;;;;;3.80;100.00;100957.49;5146562;55;1138655;-74
2023/01/04 10:00:17;;;;;;;13.27;6.97;;;;;;;3.89;100.00;100945.31;5153268;55;1138667;-68
2023/01/04 10:05:26;;;;;;;17.43;6.60;;;;;;;4.02;100.00;100930.38;5143777;55;1138870;-71
2023/01/04 10:10:48;;;;;;;11.78;6.22;;;;;;;4.14;100.00;100921.98;5046395;56;1138872;-71
2023/01/04 10:15:59;;;;;;;10.20;6.20;;;;;;;4.23;100.00;100911.97;5137984;55;1138868;-73
2023/01/04 10:21:32;;;;;;;12.83;6.07;;;;;;;4.30;100.00;100890.27;5161001;55;1138715;-72
2023/01/04 10:26:50;;;;;;;13.73;5.73;;;;;;;4.39;100.00;100878.08;5135995;55;1138676;-73
2023/01/04 10:32:19;;;;;;;12.00;5.77;;;;;;;4.48;100.00;100857.99;5103860;55;1138941;-72
2023/01/04 10:37:36;;;;;;;13.93;6.13;;;;;;;4.56;100.00;100844.55;5139130;55;1138831;-71
2023/01/04 10:42:49;;;;;;;13.25;5.33;;;;;;;4.68;100.00;100823.00;5134841;55;1139048;-73
2023/01/04 10:48:06;;;;;;;;;;;;;;;4.75;100.00;100821.77;5132838;55;1138809;-75
2023/01/04 10:53:34;;;;;;;7.83;4.50;;;;;;;4.88;100.00;100807.63;5140101;55;973869;-70
2023/01/04 10:58:52;;;;;;;8.20;4.70;;;;;;;5.01;100.00;100807.86;5130517;55;1134453;-71
2023/01/04 11:04:11;;;;;;;11.78;4.60;;;;;;;5.09;100.00;100793.42;5142200;55;1136602;-71
2023/01/04 11:09:31;;;;;;;8.47;5.13;;;;;;;5.22;100.00;100784.00;5108389;55;1138820;-70
2023/01/04 11:14:37;;;;;;;12.97;5.87;;;;;;;5.30;100.00;100755.63;4997728;55;1136658;-72
2023/01/04 11:19:43;;;;;;;10.25;5.22;;;;;;;5.35;100.00;100771.60;5143017;55;1138747;-74
2023/01/04 11:24:54;;;;;;;12.05;5.90;;;;;;;5.39;100.00;100742.48;5148452;55;1138735;-68
2023/01/04 11:30:16;;;;;;;10.00;5.20;;;;;;;5.40;100.00;100723.20;5071793;56;1138832;-62
2023/01/04 11:35:43;;;;;;;12.20;5.03;;;;;;;5.38;100.00;100736.86;5112831;55;1138695;-68
2023/01/04 11:41:08;;;;;;;11.20;6.27;;;;;;;5.29;100.00;100712.44;5124398;56;1138878;-72
2023/01/04 11:46:27;;;;;;;8.77;6.43;;;;;;;5.18;100.00;100697.74;5126638;55;1138657;-72
2023/01/04 11:51:40;;;;;;;13.30;7.73;;;;;;;5.06;100.00;100673.45;5109519;55;1136559;-74
2023/01/04 11:57:01;;;;;;;13.80;9.73;;;;;;;4.93;100.00;100664.92;5118039;56;1139034;-67
2023/01/04 12:02:23;;;;;;;14.87;6.97;;;;;;;4.82;100.00;100627.95;5058137;56;1138940;-70
2023/01/04 12:07:33;;;;;;;7.57;5.97;;;;;;;4.73;100.00;100607.48;5081884;55;1138593;-71
2023/01/04 12:12:40;;;;;;;13.80;5.93;;;;;;;4.69;100.00;100595.47;5094207;56;1136703;-67
2023/01/04 12:17:55;;;;;;;10.95;6.08;;;;;;;4.66;100.00;100581.67;5120091;55;1138967;-69
2023/01/04 12:23:02;;;;;;;13.17;6.70;;;;;;;4.66;100.00;100569.89;5121078;55;1138788;-71
2023/01/04 12:28:27;;;;;;;10.57;6.07;;;;;;;4.67;100.00;100559.80;5132666;55;1138896;-72
2023/01/04 12:33:38;;;;;;;9.97;5.20;;;;;;;4.70;100.00;100539.53;5159131;55;1138686;-69
2023/01/04 12:39:04;;;;;;;9.80;6.00;;;;;;;4.75;100.00;100524.39;5161210;55;1136961;-73
2023/01/04 12:44:45;;;;;;;8.37;4.77;;;;;;;4.85;100.00;100513.82;5118112;55;1137030;-72
2023/01/04 12:50:03;;;;;;;11.55;6.78;;;;;;;4.89;100.00;100486.49;5130108;55;1136659;-70
2023/01/04 12:55:29;;;;;;;9.18;6.28;;;;;;;4.91;100.00;100492.97;5140626;55;1138709;-75
2023/01/04 13:01:00;;;;;;;13.13;8.17;;;;;;;4.92;100.00;100471.08;5121415;55;1136597;-71
2023/01/04 13:06:07;;;;;;;13.33;6.37;;;;;;;4.93;100.00;100472.30;5100288;55;1138587;-72
2023/01/04 13:11:38;;;;;;;36.47;15.90;;;;;;;4.95;100.00;100460.42;5099942;55;1138642;-74
2023/01/04 13:17:01;;;;;;;46.60;16.60;;;;;;;4.97;100.00;100442.00;5165255;55;1140770;-77
2023/01/04 13:22:14;;;;;;;8.97;5.87;;;;;;;4.99;100.00;100431.81;4804191;59;1140970;-71
2023/01/04 13:27:21;;;;;;;;;;;;;;;5.04;100.00;100426.33;4762718;59;1136887;-70
2023/01/04 13:32:37;;;;;;;16.03;6.80;;;;;;;5.05;100.00;100411.80;4825430;59;974105;-74
2023/01/04 13:37:49;;;;;;;15.00;5.87;;;;;;;5.05;100.00;100397.38;4736694;59;1136731;-70
2023/01/04 13:43:23;;;;;;;9.20;5.90;;;;;;;5.05;100.00;100385.59;4856391;58;1138888;-73
2023/01/04 13:48:33;;;;;;;10.60;5.67;;;;;;;5.05;100.00;100375.09;4911748;57;1136692;-72
2023/01/04 13:53:40;;;;;;;10.83;6.43;;;;;;;5.05;100.00;100355.44;4932963;57;1138938;-68
2023/01/04 13:58:46;;;;;;;11.22;7.12;;;;;;;5.07;100.00;100349.65;5012652;55;1138967;-71
2023/01/04 14:04:01;;;;;;;8.28;5.42;;;;;;;5.10;100.00;100351.25;5120518;55;1138859;-72
2023/01/04 14:09:14;;;;;;;8.47;5.07;;;;;;;5.10;100.00;100333.75;5103319;55;1136868;-68
2023/01/04 14:14:48;;;;;;;10.28;6.08;;;;;;;5.15;100.00;100325.63;5165007;55;1136654;-70
2023/01/04 14:19:59;;;;;;;8.93;5.63;;;;;;;5.17;100.00;100308.04;5137701;55;1138737;-71
2023/01/04 14:25:54;;;;;;;9.98;5.97;;;;;;;5.22;100.00;100296.33;5143549;55;1136604;-71
2023/01/04 14:31:05;;;;;;;11.03;6.70;;;;;;;5.27;100.00;100300.00;5094470;55;1136816;-71
2023/01/04 14:36:16;;;;;;;9.63;5.80;;;;;;;5.30;100.00;100287.56;4956761;57;1138756;-70
2023/01/04 14:41:34;;;;;;;10.90;6.50;;;;;;;5.35;100.00;100258.91;5091570;55;1136921;-75
2023/01/04 14:46:44;;;;;;;8.60;5.93;;;;;;;5.38;100.00;100253.45;4993155;56;1138857;-73
2023/01/04 14:51:56;;;;;;;14.47;7.20;;;;;;;5.40;100.00;100242.41;5094386;55;1136830;-72
2023/01/04 14:57:02;;;;;;;13.10;7.73;;;;;;;5.42;100.00;100241.86;5115016;55;1138782;-72
2023/01/04 15:02:09;;;;;;;10.43;7.93;;;;;;;5.45;100.00;100220.70;5055160;55;1138957;-69
2023/01/04 15:07:38;;;;;;;16.23;9.80;;;;;;;5.50;100.00;100209.46;5055162;56;1139005;-71
2023/01/04 15:12:44;;;;;;;12.73;8.93;;;;;;;5.54;100.00;100209.63;5095005;55;1138837;-71
2023/01/04 15:17:51;;;;;;;27.25;14.45;;;;;;;5.57;100.00;100192.39;5095426;56;1138789;-73
2023/01/04 15:22:57;;;;;;;53.13;26.25;;;;;;;5.61;100.00;100202.61;5102269;55;1141019;-73
2023/01/04 15:28:03;;;;;;;8.87;6.53;;;;;;;5.66;100.00;100170.81;5123460;55;1141031;-76
2023/01/04 15:33:09;;;;;;;12.57;8.90;;;;;;;5.70;100.00;100165.76;5119847;55;1136678;-74
2023/01/04 15:38:15;;;;;;;17.07;11.03;;;;;;;5.73;100.00;100146.36;5116301;55;1138703;-69
2023/01/04 15:43:21;;;;;;;11.33;9.60;;;;;;;5.75;100.00;100141.86;5121086;55;1140885;-69
2023/01/04 15:48:27;;;;;;;9.97;7.50;;;;;;;5.78;100.00;100141.67;5099005;55;1138882;-71
2023/01/04 15:53:33;;;;;;;9.83;6.80;;;;;;;5.78;100.00;100134.64;5104934;55;1136924;-70
2023/01/04 15:58:39;;;;;;;10.53;7.80;;;;;;;5.80;100.00;100126.20;5177355;55;1136695;-75
2023/01/04 16:03:45;;;;;;;10.40;7.70;;;;;;;5.82;100.00;100101.16;5112643;55;1138903;-72
2023/01/04 16:08:51;;;;;;;33.85;20.43;;;;;;;5.83;100.00;100087.09;5098772;56;1138802;-72
2023/01/04 16:13:58;;;;;;;17.63;12.43;;;;;;;5.88;100.00;100085.89;5098386;56;1140961;-72
2023/01/04 16:19:04;;;;;;;21.97;13.90;;;;;;;5.91;100.00;100079.61;5117823;56;1143082;-74
2023/01/04 16:24:11;;;;;;;26.13;14.87;;;;;;;5.93;100.00;100073.80;5097832;56;1143098;-73
2023/01/04 16:29:19;;;;;;;9.67;6.87;;;;;;;5.97;100.00;100068.22;5099611;56;1143025;-71
2023/01/04 16:34:26;;;;;;;9.90;6.17;;;;;;;5.99;100.00;100053.22;5132429;56;1138899;-68
2023/01/04 16:39:32;;;;;;;13.43;7.20;;;;;;;6.03;100.00;100059.11;5079075;56;1138655;-76
2023/01/04 16:44:40;;;;;;;8.87;5.23;;;;;;;6.06;100.00;100045.79;5073920;56;1138734;-72
2023/01/04 16:49:47;;;;;;;18.23;10.27;;;;;;;6.10;100.00;100042.50;5070008;55;1136790;-74
2023/01/04 16:54:53;;;;;;;7.50;4.80;;;;;;;6.14;100.00;100031.66;5108213;55;1141021;-72
2023/01/04 16:59:59;;;;;;;13.07;8.10;;;;;;;6.18;100.00;100023.12;5122703;55;1138673;-70
2023/01/04 17:05:06;;;;;;;4.95;4.45;;;;;;;6.20;100.00;100018.14;5113495;55;1140847;-71
2023/01/04 17:10:12;;;;;;;13.53;8.07;;;;;;;6.25;100.00;100013.42;5057778;56;1136764;-75
2023/01/04 17:15:18;;;;;;;4.97;3.93;;;;;;;6.28;100.00;100015.82;5057896;55;1140699;-70
2023/01/04 17:20:24;;;;;;;8.60;5.37;;;;;;;6.32;100.00;100007.27;5102495;55;1138826;-66
2023/01/04 17:25:30;;;;;;;6.47;5.22;;;;;;;6.37;100.00;100010.43;5132072;55;1136767;-69
2023/01/04 17:30:39;;;;;;;7.47;5.43;;;;;;;6.42;100.00;100010.09;5065985;55;1138856;-67
2023/01/04 17:35:45;;;;;;;5.93;4.53;;;;;;;6.46;100.00;100001.91;5096518;55;1138914;-69
2023/01/04 17:40:52;;;;;;;4.40;3.70;;;;;;;6.48;100.00;99984.26;5083887;55;1138802;-71
2023/01/04 17:46:03;;;;;;;15.08;7.03;;;;;;;6.51;100.00;99985.84;5084423;55;1136692;-68
2023/01/04 17:51:19;;;;;;;5.37;4.87;;;;;;;6.57;100.00;99977.55;5106629;55;1138775;-72
2023/01/04 17:56:25;;;;;;;8.17;5.73;;;;;;;6.60;100.00;99968.11;5092032;55;1136806;-69
2023/01/04 18:01:32;;;;;;;5.17;3.57;;;;;;;6.64;100.00;99962.55;5100512;55;1136635;-69
2023/01/04 18:06:39;;;;;;;6.70;4.03;;;;;;;6.69;100.00;99962.23;5090059;55;1136647;-69
2023/01/04 18:11:45;;;;;;;4.90;3.73;;;;;;;6.76;100.00;99954.73;5091963;55;1136811;-71
2023/01/04 18:16:57;;;;;;;3.67;3.25;;;;;;;6.83;100.00;99938.91;5112552;55;1136595;-71
2023/01/04 18:22:04;;;;;;;6.47;4.47;;;;;;;6.87;100.00;99932.02;5087540;55;1136754;-73
2023/01/04 18:27:12;;;;;;;15.33;8.63;;;;;;;6.93;100.00;99923.67;5093130;55;1136661;-71
2023/01/04 18:32:19;;;;;;;4.57;3.30;;;;;;;6.98;100.00;99921.56;5111480;55;1138912;-70
2023/01/04 18:37:25;;;;;;;8.53;3.73;;;;;;;7.04;100.00;99904.48;5087091;55;1136689;-69
2023/01/04 18:42:31;;;;;;;7.73;4.27;;;;;;;7.09;100.00;99883.97;5057996;55;1136869;-70
2023/01/04 18:47:38;;;;;;;9.03;4.33;;;;;;;7.15;100.00;99884.84;5099359;55;1136618;-70
2023/01/04 18:52:45;;;;;;;10.98;5.00;;;;;;;7.20;100.00;99868.70;5075308;55;1136811;-74
2023/01/04 18:57:51;;;;;;;24.70;7.17;;;;;;;7.24;100.00;99864.42;5071098;56;1138726;-71
2023/01/04 19:02:58;;;;;;;5.67;3.33;;;;;;;7.29;100.00;99851.78;5054313;56;1138857;-72
2023/01/04 19:08:04;;;;;;;11.57;4.23;;;;;;;7.32;100.00;99858.13;5043036;56;1136848;-67
2023/01/04 19:13:12;;;;;;;62.90;20.90;;;;;;;7.36;100.00;99840.30;5015014;56;1138935;-72
2023/01/04 19:18:18;;;;;;;15.57;5.30;;;;;;;7.37;100.00;99835.41;5057406;56;1141164;-70
2023/01/04 19:23:25;;;;;;;37.27;8.07;;;;;;;7.37;100.00;99839.36;5118006;56;1138853;-68
2023/01/04 19:28:31;;;;;;;18.43;4.97;;;;;;;7.39;100.00;99824.30;5095720;56;1138616;-69
2023/01/04 19:33:37;;;;;;;12.97;3.83;;;;;;;7.41;100.00;99819.28;5074007;56;1138858;-73
2023/01/04 19:38:43;;;;;;;17.30;7.00;;;;;;;7.43;100.00;99813.91;5066819;56;1138929;-72
2023/01/04 19:43:50;;;;;;;23.83;6.20;;;;;;;7.46;100.00;99805.80;5066553;55;1139141;-70
2023/01/04 19:48:57;;;;;;;8.78;4.08;;;;;;;7.48;100.00;99792.52;5098191;56;1138866;-70
2023/01/04 19:54:02;;;;;;;6.08;3.30;;;;;;;7.51;100.00;99781.73;5059540;56;1136896;-72
2023/01/04 19:59:08;;;;;;;7.30;3.70;;;;;;;7.54;100.00;99781.52;5064682;56;1136716;-69
2023/01/04 20:04:14;;;;;;;5.57;3.47;;;;;;;7.58;100.00;99781.17;5035490;55;1136665;-67
2023/01/04 20:09:24;;;;;;;64.55;20.72;;;;;;;7.60;100.00;99781.89;5038969;55;1136880;-73
2023/01/04 20:14:29;;;;;;;17.53;5.20;;;;;;;7.65;100.00;99768.36;5042957;56;1140910;-72
2023/01/04 20:19:34;;;;;;;8.60;3.27;;;;;;;7.66;100.00;99759.03;5015837;56;1138663;-72
2023/01/04 20:24:40;;;;;;;5.03;2.67;;;;;;;7.69;100.00;99755.33;5104042;55;1136774;-68
2023/01/04 20:29:46;;;;;;;4.77;3.07;;;;;;;7.73;100.00;99743.14;5045239;56;1136801;-74
2023/01/04 20:34:52;;;;;;;3.90;2.10;;;;;;;7.76;100.00;99739.43;5049429;55;1136699;-70
2023/01/04 20:39:58;;;;;;;7.92;2.85;;;;;;;7.78;100.00;99742.78;5104812;55;1136854;-69
2023/01/04 20:45:04;;;;;;;13.28;4.95;;;;;;;7.85;100.00;99736.54;5085239;55;1136955;-67
2023/01/04 20:50:12;;;;;;;6.57;3.03;;;;;;;7.88;100.00;99725.78;5025327;56;1139040;-70
2023/01/04 20:55:18;;;;;;;7.63;2.20;;;;;;;7.95;100.00;99723.84;5071441;55;1136874;-70
2023/01/04 21:00:24;;;;;;;2.70;1.80;;;;;;;7.95;100.00;99723.84;5123008;55;1136665;-69
2023/01/04 21:05:30;;;;;;;2.33;1.93;;;;;;;8.01;100.00;99724.67;5109130;55;1136693;-71
2023/01/04 21:10:38;;;;;;;3.40;1.87;;;;;;;8.05;100.00;99724.80;5108560;55;1136729;-68
2023/01/04 21:15:44;;;;;;;4.20;2.30;;;;;;;8.09;100.00;99708.28;5070847;55;1136665;-69
2023/01/04 21:20:50;;;;;;;2.47;1.47;;;;;;;8.16;100.00;99713.88;5025931;56;1136780;-70
2023/01/04 21:25:56;;;;;;;5.22;1.50;;;;;;;8.24;100.00;99704.41;5025988;55;1136822;-70
2023/01/04 21:31:02;;;;;;;3.58;1.62;;;;;;;8.32;100.00;99698.54;5070693;55;1136800;-74
2023/01/04 21:36:18;;;;;;;2.63;1.37;;;;;;;8.40;100.00;99697.45;5105981;55;1136801;-70
2023/01/04 21:41:25;;;;;;;1.50;1.40;;;;;;;8.49;100.00;99694.53;5109939;55;1136805;-67
2023/01/04 21:46:31;;;;;;;3.93;1.30;;;;;;;8.53;100.00;99689.37;5110087;55;1136775;-72
2023/01/04 21:51:37;;;;;;;4.07;1.30;;;;;;;8.53;100.00;99675.71;5129411;55;1137089;-72
2023/01/04 21:56:44;;;;;;;4.27;1.23;;;;;;;8.49;100.00;99679.55;5109721;55;1136799;-70
2023/01/04 22:01:49;;;;;;;4.90;1.60;;;;;;;8.44;100.00;99661.48;5112312;55;1137213;-71
2023/01/04 22:06:55;;;;;;;8.43;1.90;;;;;;;8.42;100.00;99669.15;5109432;55;1137368;-71
2023/01/04 22:12:01;;;;;;;3.70;1.70;;;;;;;8.40;100.00;99653.97;5147578;55;1136683;-71
2023/01/04 22:17:07;;;;;;;6.47;1.90;;;;;;;8.40;100.00;99632.39;5170842;55;1136762;-70
2023/01/04 22:22:14;;;;;;;4.97;2.03;;;;;;;8.38;100.00;99641.41;5164599;55;1136642;-70
2023/01/04 22:27:19;;;;;;;2.40;2.20;;;;;;;8.38;100.00;99629.55;5182807;55;1136780;-70
2023/01/04 22:32:25;;;;;;;3.50;1.62;;;;;;;8.34;100.00;99625.48;5145716;55;1136714;-73
2023/01/04 22:37:31;;;;;;;4.77;2.50;;;;;;;8.34;100.00;99622.85;5022174;56;1136746;-71
2023/01/04 22:42:37;;;;;;;3.73;1.70;;;;;;;8.32;100.00;99615.08;5070058;56;1136805;-71
2023/01/04 22:47:43;;;;;;;4.63;1.90;;;;;;;8.32;100.00;99615.08;5034062;56;1136788;-70
2023/01/04 22:52:54;;;;;;;3.30;2.03;;;;;;;8.33;100.00;99626.45;5010810;56;1136781;-70
2023/01/04 22:58:00;;;;;;;1.10;1.00;;;;;;;8.32;100.00;99618.19;5042506;56;1137034;-72
2023/01/04 23:03:05;;;;;;;3.02;1.47;;;;;;;8.33;100.00;99604.05;5021392;57;1137155;-72
2023/01/04 23:08:11;;;;;;;2.67;0.90;;;;;;;8.36;100.00;99603.80;5038085;56;1136916;-69
2023/01/04 23:13:17;;;;;;;3.17;1.50;;;;;;;8.36;100.00;99613.86;5084357;56;1137006;-70
2023/01/04 23:18:23;;;;;;;0.80;0.80;;;;;;;8.40;100.00;99598.64;5121941;56;1136640;-72
2023/01/04 23:23:29;;;;;;;2.63;1.30;;;;;;;8.43;100.00;99591.78;5102735;56;1136767;-73
2023/01/04 23:28:35;;;;;;;1.00;1.00;;;;;;;8.46;100.00;99587.09;5090963;56;1136643;-72
2023/01/04 23:33:42;;;;;;;3.40;1.23;;;;;;;8.48;100.00;99587.45;5074062;56;1137028;-68
2023/01/04 23:38:54;;;;;;;0.90;0.90;;;;;;;8.52;100.00;99574.37;4962186;58;1136812;-72
2023/01/04 23:44:00;;;;;;;1.32;0.98;;;;;;;8.54;100.00;99559.28;4962535;58;1136953;-70
2023/01/04 23:49:06;;;;;;;1.20;1.10;;;;;;;8.55;100.00;99558.31;4962495;57;1137292;-68
2023/01/04 23:54:12;;;;;;;1.20;1.10;;;;;;;8.55;100.00;99556.52;4981628;57;1136881;-69